ADDS METAR Data INFO
IDs: Format: Raw Decoded Include TAF

Data at: 1130 UTC 29 May 2017

METAR for:PAKF (False Pass Arpt, AK, US)
Text:PAKF 291101Z AUTO 24006KT 10SM CLR 01/00 A2981 RMK AO2 SLP190 T00110000 FZRANO $
Temperature: 1.1°C ( 34°F)
Dewpoint: 0.0°C ( 32°F) [RH = 92%]
Pressure (altimeter):29.81 inches Hg (1009.6 mb) [Sea level pressure: 1019.0 mb]
Winds:from the WSW (240 degrees) at 7 MPH (6 knots; 3.1 m/s)
Visibility:10 or more sm (16+ km)
Ceiling:at least 12,000 feet AGL
Clouds:sky clear below 12,000 feet AGL
QC Flag:automated observation with no human augmentation; SOME DATA ABOVE MAY BE INACCURATE!!!"$" is an indication the sensor requires maintenance.
Text:PAKF 291001Z AUTO VRB03KT 10SM CLR 02/00 A2981 RMK AO2 SLP190 T00170000 FZRANO $
Temperature: 1.7°C ( 35°F)
Dewpoint: 0.0°C ( 32°F) [RH = 88%]
Pressure (altimeter):29.81 inches Hg (1009.6 mb) [Sea level pressure: 1019.0 mb]
Winds:variable direction winds at 3 MPH (3 knots; 1.5 m/s)
Visibility:10 or more sm (16+ km)
Ceiling:at least 12,000 feet AGL
Clouds:sky clear below 12,000 feet AGL
QC Flag:automated observation with no human augmentation; SOME DATA ABOVE MAY BE INACCURATE!!!"$" is an indication the sensor requires maintenance.
Text:PAKF 290901Z AUTO 25004KT 10SM CLR 02/01 A2981 RMK AO2 SLP190 T00220011 400220022 53008 FZRANO $
Temperature: 2.2°C ( 36°F)
Dewpoint: 1.1°C ( 34°F) [RH = 92%]
Pressure (altimeter):29.81 inches Hg (1009.6 mb) [Sea level pressure: 1019.0 mb]
Winds:from the WSW (250 degrees) at 5 MPH (4 knots; 2.1 m/s)
Visibility:10 or more sm (16+ km)
Ceiling:at least 12,000 feet AGL
Clouds:sky clear below 12,000 feet AGL
QC Flag:automated observation with no human augmentation; SOME DATA ABOVE MAY BE INACCURATE!!!"$" is an indication the sensor requires maintenance.
Text:PAKF 290801Z AUTO 25004KT 10SM CLR 03/01 A2980 RMK AO2 SLP188 T00330011 $
Temperature: 3.3°C ( 38°F)
Dewpoint: 1.1°C ( 34°F) [RH = 85%]
Pressure (altimeter):29.80 inches Hg (1009.2 mb) [Sea level pressure: 1018.8 mb]
Winds:from the WSW (250 degrees) at 5 MPH (4 knots; 2.1 m/s)
Visibility:10 or more sm (16+ km)
Ceiling:at least 12,000 feet AGL
Clouds:sky clear below 12,000 feet AGL
QC Flag:automated observation with no human augmentation; SOME DATA ABOVE MAY BE INACCURATE!!!"$" is an indication the sensor requires maintenance.
Text:PAKF 290701Z AUTO 35007KT 10SM CLR 06/03 A2980 RMK AO2 SLP185 T00610028 $
Temperature: 6.1°C ( 43°F)
Dewpoint: 2.8°C ( 37°F) [RH = 79%]
Pressure (altimeter):29.80 inches Hg (1009.2 mb) [Sea level pressure: 1018.5 mb]
Winds:from the N (350 degrees) at 8 MPH (7 knots; 3.6 m/s)
Visibility:10 or more sm (16+ km)
Ceiling:at least 12,000 feet AGL
Clouds:sky clear below 12,000 feet AGL
QC Flag:automated observation with no human augmentation; SOME DATA ABOVE MAY BE INACCURATE!!!"$" is an indication the sensor requires maintenance.
Text:PAKF 290601Z AUTO 36009KT 10SM OVC044 07/02 A2979 RMK AO2 SLP181 T00720022 10094 20072 53000 $
Temperature: 7.2°C ( 45°F)
Dewpoint: 2.2°C ( 36°F) [RH = 70%]
Pressure (altimeter):29.79 inches Hg (1008.9 mb) [Sea level pressure: 1018.1 mb]
Winds:from the N (360 degrees) at 10 MPH (9 knots; 4.6 m/s)
Visibility:10 or more sm (16+ km)
Ceiling:4400 feet AGL
Clouds: overcast cloud deck at 4400 feet AGL
QC Flag:automated observation with no human augmentation; SOME DATA ABOVE MAY BE INACCURATE!!!"$" is an indication the sensor requires maintenance.

TAF for:PAKF (False Pass Arpt, AK, US)
Text:No data found


Page loaded:  11:30 UTC  |   04:30 AM Pacific  |   05:30 AM Mountain  |   06:30 AM Central  |   07:30 AM Eastern

 

ADVISORIES

FORECASTS

FORECASTS

OBSERVATIONS

USER TOOLS

ABOUT US